Terminal Aerodrome Forecast
Issued by NWS Buffalo, NY

Home | Current Version | Previous Version | Text Only | Print | Product List | Glossary On
Versions: 1 2 3 4 5 6 7 8 9 10 11 12 13 14 15 16 17 18 19 20 21 22 23 24 25 26
101
FTUS41 KBUF 301740
TAFROC
TAF
KROC 301740Z 3018/3118 10009KT P6SM BKN100
     FM302000 08008KT 6SM -RA OVC035
      TEMPO 3021/3024 3SM +RA OVC015
     FM310100 09009KT 3SM -RA BR OVC012
     FM310300 09012KT 6SM -RA OVC012
     FM311700 10012KT 6SM -RA OVC007=

USA.gov is the U.S. government's official web portal to all federal, state and local government web resources and services.